sensor_id;sensor_type;location;lat;lon;timestamp;pressure;altitude;pressure_sealevel;temperature;humidity
6030;BME280;3043;42.682;23.376;2023-02-28T00:00:47;95343.69;;;7.40;100.00
6030;BME280;3043;42.682;23.376;2023-02-28T00:03:12;95343.69;;;7.43;100.00
6030;BME280;3043;42.682;23.376;2023-02-28T00:05:38;95342.81;;;7.47;100.00
6030;BME280;3043;42.682;23.376;2023-02-28T00:08:04;95349.72;;;7.39;100.00
6030;BME280;3043;42.682;23.376;2023-02-28T00:10:30;95360.81;;;7.50;100.00
6030;BME280;3043;42.682;23.376;2023-02-28T00:13:01;95341.81;;;7.63;100.00
6030;BME280;3043;42.682;23.376;2023-02-28T00:15:27;95357.38;;;7.51;100.00
6030;BME280;3043;42.682;23.376;2023-02-28T00:17:53;95364.09;;;7.67;100.00
6030;BME280;3043;42.682;23.376;2023-02-28T00:20:19;95360.78;;;7.56;100.00
6030;BME280;3043;42.682;23.376;2023-02-28T00:22:46;95360.72;;;7.62;100.00
6030;BME280;3043;42.682;23.376;2023-02-28T00:25:15;95362.31;;;7.75;100.00
6030;BME280;3043;42.682;23.376;2023-02-28T00:27:41;95370.84;;;7.83;100.00
6030;BME280;3043;42.682;23.376;2023-02-28T00:30:10;95376.09;;;7.73;100.00
6030;BME280;3043;42.682;23.376;2023-02-28T00:32:35;95366.84;;;7.43;100.00
6030;BME280;3043;42.682;23.376;2023-02-28T00:35:02;95364.16;;;7.58;100.00
6030;BME280;3043;42.682;23.376;2023-02-28T00:37:28;95377.13;;;7.48;100.00
6030;BME280;3043;42.682;23.376;2023-02-28T00:39:54;95372.06;;;7.36;100.00
6030;BME280;3043;42.682;23.376;2023-02-28T00:42:19;95366.00;;;7.47;100.00
6030;BME280;3043;42.682;23.376;2023-02-28T00:44:45;95379.66;;;7.52;100.00
6030;BME280;3043;42.682;23.376;2023-02-28T00:47:10;95359.94;;;7.53;100.00
6030;BME280;3043;42.682;23.376;2023-02-28T00:49:35;95357.47;;;7.39;100.00
6030;BME280;3043;42.682;23.376;2023-02-28T00:52:01;95356.63;;;7.34;100.00
6030;BME280;3043;42.682;23.376;2023-02-28T00:54:27;95340.38;;;7.26;100.00
6030;BME280;3043;42.682;23.376;2023-02-28T00:56:52;95348.13;;;7.18;100.00
6030;BME280;3043;42.682;23.376;2023-02-28T00:59:18;95350.66;;;7.29;100.00
6030;BME280;3043;42.682;23.376;2023-02-28T01:01:44;95352.47;;;7.15;100.00
6030;BME280;3043;42.682;23.376;2023-02-28T01:04:10;95363.69;;;7.00;100.00
6030;BME280;3043;42.682;23.376;2023-02-28T01:06:36;95370.63;;;6.91;100.00
6030;BME280;3043;42.682;23.376;2023-02-28T01:09:03;95374.00;;;6.94;100.00
6030;BME280;3043;42.682;23.376;2023-02-28T01:11:29;95350.88;;;6.87;100.00
6030;BME280;3043;42.682;23.376;2023-02-28T01:13:54;95350.84;;;6.93;100.00
6030;BME280;3043;42.682;23.376;2023-02-28T01:16:19;95362.91;;;6.88;100.00
6030;BME280;3043;42.682;23.376;2023-02-28T01:18:45;95357.69;;;7.03;100.00
6030;BME280;3043;42.682;23.376;2023-02-28T01:21:14;95354.22;;;7.07;100.00
6030;BME280;3043;42.682;23.376;2023-02-28T01:23:40;95351.63;;;7.11;100.00
6030;BME280;3043;42.682;23.376;2023-02-28T01:26:26;95346.50;;;7.07;100.00
6030;BME280;3043;42.682;23.376;2023-02-28T01:28:52;95347.47;;;6.91;100.00
6030;BME280;3043;42.682;23.376;2023-02-28T01:31:19;95347.47;;;6.91;100.00
6030;BME280;3043;42.682;23.376;2023-02-28T01:33:46;95342.28;;;6.94;100.00
6030;BME280;3043;42.682;23.376;2023-02-28T01:36:12;95339.66;;;7.04;100.00
6030;BME280;3043;42.682;23.376;2023-02-28T01:38:39;95344.78;;;7.10;100.00
6030;BME280;3043;42.682;23.376;2023-02-28T01:41:05;95343.03;;;7.09;100.00
6030;BME280;3043;42.682;23.376;2023-02-28T01:46:19;95354.31;;;6.92;100.00
6030;BME280;3043;42.682;23.376;2023-02-28T01:49:10;95355.97;;;6.97;100.00
6030;BME280;3043;42.682;23.376;2023-02-28T01:51:41;95356.81;;;7.04;100.00
6030;BME280;3043;42.682;23.376;2023-02-28T01:54:19;95349.09;;;7.01;100.00
6030;BME280;3043;42.682;23.376;2023-02-28T01:56:50;95365.44;;;6.95;100.00
6030;BME280;3043;42.682;23.376;2023-02-28T01:59:43;95360.31;;;6.91;100.00
6030;BME280;3043;42.682;23.376;2023-02-28T02:02:17;95353.38;;;7.00;100.00
6030;BME280;3043;42.682;23.376;2023-02-28T02:04:54;95342.28;;;6.97;100.00
6030;BME280;3043;42.682;23.376;2023-02-28T02:07:20;95356.03;;;6.87;100.00
6030;BME280;3043;42.682;23.376;2023-02-28T02:09:46;95360.25;;;7.01;100.00
6030;BME280;3043;42.682;23.376;2023-02-28T02:15:57;95346.69;;;6.69;100.00
6030;BME280;3043;42.682;23.376;2023-02-28T02:20:46;95340.72;;;6.60;100.00
6030;BME280;3043;42.682;23.376;2023-02-28T02:29:20;95342.44;;;6.55;100.00
6030;BME280;3043;42.682;23.376;2023-02-28T02:37:27;95349.19;;;6.83;100.00
6030;BME280;3043;42.682;23.376;2023-02-28T02:43:06;95356.00;;;6.93;100.00
6030;BME280;3043;42.682;23.376;2023-02-28T02:45:39;95359.53;;;6.77;100.00
6030;BME280;3043;42.682;23.376;2023-02-28T02:48:10;95361.22;;;6.78;100.00
6030;BME280;3043;42.682;23.376;2023-02-28T02:50:52;95362.00;;;6.93;100.00
6030;BME280;3043;42.682;23.376;2023-02-28T02:53:22;95368.13;;;6.73;100.00
6030;BME280;3043;42.682;23.376;2023-02-28T02:55:51;95362.13;;;6.72;100.00
6030;BME280;3043;42.682;23.376;2023-02-28T02:58:22;95358.69;;;6.72;100.00
6030;BME280;3043;42.682;23.376;2023-02-28T03:00:55;95366.25;;;7.02;100.00
6030;BME280;3043;42.682;23.376;2023-02-28T03:03:23;95373.13;;;7.00;100.00
6030;BME280;3043;42.682;23.376;2023-02-28T03:05:59;95375.75;;;6.91;100.00
6030;BME280;3043;42.682;23.376;2023-02-28T03:08:26;95382.63;;;6.84;100.00
6030;BME280;3043;42.682;23.376;2023-02-28T03:10:56;95388.63;;;6.94;100.00
6030;BME280;3043;42.682;23.376;2023-02-28T03:24:37;95401.50;;;6.88;100.00
6030;BME280;3043;42.682;23.376;2023-02-28T03:27:13;95410.91;;;6.89;100.00
6030;BME280;3043;42.682;23.376;2023-02-28T03:29:47;95411.88;;;6.56;100.00
6030;BME280;3043;42.682;23.376;2023-02-28T03:32:21;95409.28;;;6.70;100.00
6030;BME280;3043;42.682;23.376;2023-02-28T03:35:03;95412.75;;;6.48;100.00
6030;BME280;3043;42.682;23.376;2023-02-28T03:37:32;95412.75;;;6.48;100.00
6030;BME280;3043;42.682;23.376;2023-02-28T03:40:06;95421.34;;;6.47;100.00
6030;BME280;3043;42.682;23.376;2023-02-28T03:42:35;95417.03;;;6.49;100.00
6030;BME280;3043;42.682;23.376;2023-02-28T03:45:23;95407.56;;;6.66;100.00
6030;BME280;3043;42.682;23.376;2023-02-28T03:50:42;95419.56;;;6.73;100.00
6030;BME280;3043;42.682;23.376;2023-02-28T03:53:14;95419.53;;;6.82;100.00
6030;BME280;3043;42.682;23.376;2023-02-28T03:55:47;95415.16;;;6.96;100.00
6030;BME280;3043;42.682;23.376;2023-02-28T03:58:16;95422.03;;;7.01;100.00
6030;BME280;3043;42.682;23.376;2023-02-28T04:00:54;95425.44;;;7.02;100.00
6030;BME280;3043;42.682;23.376;2023-02-28T04:03:20;95431.41;;;7.10;100.00
6030;BME280;3043;42.682;23.376;2023-02-28T04:05:52;95424.50;;;7.21;100.00
6030;BME280;3043;42.682;23.376;2023-02-28T04:08:19;95430.44;;;7.38;100.00
6030;BME280;3043;42.682;23.376;2023-02-28T04:10:48;95427.00;;;7.33;100.00
6030;BME280;3043;42.682;23.376;2023-02-28T04:13:15;95415.78;;;7.46;100.00
6030;BME280;3043;42.682;23.376;2023-02-28T04:15:41;95420.91;;;7.46;100.00
6030;BME280;3043;42.682;23.376;2023-02-28T04:18:06;95432.91;;;7.53;100.00
6030;BME280;3043;42.682;23.376;2023-02-28T04:20:32;95424.28;;;7.60;100.00
6030;BME280;3043;42.682;23.376;2023-02-28T04:22:58;95409.84;;;7.37;100.00
6030;BME280;3043;42.682;23.376;2023-02-28T04:25:23;95421.03;;;7.28;100.00
6030;BME280;3043;42.682;23.376;2023-02-28T04:27:48;95425.34;;;7.18;100.00
6030;BME280;3043;42.682;23.376;2023-02-28T04:30:14;95429.75;;;6.97;100.00
6030;BME280;3043;42.682;23.376;2023-02-28T04:32:39;95424.59;;;7.00;100.00
6030;BME280;3043;42.682;23.376;2023-02-28T04:35:05;95423.75;;;6.96;100.00
6030;BME280;3043;42.682;23.376;2023-02-28T04:37:30;95426.34;;;6.95;100.00
6030;BME280;3043;42.682;23.376;2023-02-28T04:40:00;95424.72;;;6.70;100.00
6030;BME280;3043;42.682;23.376;2023-02-28T04:42:25;95436.72;;;6.68;100.00
6030;BME280;3043;42.682;23.376;2023-02-28T04:44:51;95444.47;;;6.56;100.00
6030;BME280;3043;42.682;23.376;2023-02-28T04:47:17;95436.75;;;6.56;100.00
6030;BME280;3043;42.682;23.376;2023-02-28T04:49:42;95444.47;;;6.50;100.00
6030;BME280;3043;42.682;23.376;2023-02-28T04:52:08;95449.63;;;6.47;100.00
6030;BME280;3043;42.682;23.376;2023-02-28T04:54:35;95443.66;;;6.30;100.00
6030;BME280;3043;42.682;23.376;2023-02-28T04:57:00;95442.78;;;6.31;100.00
6030;BME280;3043;42.682;23.376;2023-02-28T04:59:26;95439.34;;;6.44;100.00
6030;BME280;3043;42.682;23.376;2023-02-28T05:01:52;95440.22;;;6.31;100.00
6030;BME280;3043;42.682;23.376;2023-02-28T05:04:17;95441.91;;;6.53;100.00
6030;BME280;3043;42.682;23.376;2023-02-28T05:06:43;95433.34;;;6.42;100.00
6030;BME280;3043;42.682;23.376;2023-02-28T05:09:09;95431.63;;;6.47;100.00
6030;BME280;3043;42.682;23.376;2023-02-28T05:11:37;95441.03;;;6.54;100.00
6030;BME280;3043;42.682;23.376;2023-02-28T05:14:05;95439.31;;;6.59;100.00
6030;BME280;3043;42.682;23.376;2023-02-28T05:16:32;95446.19;;;6.48;100.00
6030;BME280;3043;42.682;23.376;2023-02-28T05:18:57;95450.44;;;6.58;100.00
6030;BME280;3043;42.682;23.376;2023-02-28T05:21:37;95457.31;;;6.59;100.00
6030;BME280;3043;42.682;23.376;2023-02-28T05:24:06;95464.19;;;6.45;100.00
6030;BME280;3043;42.682;23.376;2023-02-28T05:26:38;95461.63;;;6.46;100.00
6030;BME280;3043;42.682;23.376;2023-02-28T05:29:04;95465.06;;;6.45;100.00
6030;BME280;3043;42.682;23.376;2023-02-28T05:31:30;95459.06;;;6.42;100.00
6030;BME280;3043;42.682;23.376;2023-02-28T05:33:55;95469.38;;;6.21;100.00
6030;BME280;3043;42.682;23.376;2023-02-28T05:36:21;95469.34;;;6.27;100.00
6030;BME280;3043;42.682;23.376;2023-02-28T05:38:47;95475.38;;;6.27;100.00
6030;BME280;3043;42.682;23.376;2023-02-28T05:41:14;95476.22;;;6.19;100.00
6030;BME280;3043;42.682;23.376;2023-02-28T05:43:39;95477.94;;;6.23;100.00
6030;BME280;3043;42.682;23.376;2023-02-28T05:46:06;95485.66;;;6.33;100.00
6030;BME280;3043;42.682;23.376;2023-02-28T05:48:34;95483.09;;;6.29;100.00
6030;BME280;3043;42.682;23.376;2023-02-28T05:51:00;95479.63;;;6.39;100.00
6030;BME280;3043;42.682;23.376;2023-02-28T05:53:25;95479.66;;;6.21;100.00
6030;BME280;3043;42.682;23.376;2023-02-28T05:55:51;95479.63;;;6.48;100.00
6030;BME280;3043;42.682;23.376;2023-02-28T05:58:17;95488.19;;;6.59;100.00
6030;BME280;3043;42.682;23.376;2023-02-28T06:00:42;95489.91;;;6.43;100.00
6030;BME280;3043;42.682;23.376;2023-02-28T06:03:08;95488.19;;;6.44;100.00
6030;BME280;3043;42.682;23.376;2023-02-28T06:05:33;95489.03;;;6.46;100.00
6030;BME280;3043;42.682;23.376;2023-02-28T06:07:58;95477.91;;;6.56;100.00
6030;BME280;3043;42.682;23.376;2023-02-28T06:10:24;95483.84;;;6.82;100.00
6030;BME280;3043;42.682;23.376;2023-02-28T06:12:49;95483.03;;;6.59;100.00
6030;BME280;3043;42.682;23.376;2023-02-28T06:15:16;95491.56;;;6.82;100.00
6030;BME280;3043;42.682;23.376;2023-02-28T06:17:42;95482.06;;;6.94;100.00
6030;BME280;3043;42.682;23.376;2023-02-28T06:20:09;95487.25;;;6.82;100.00
6030;BME280;3043;42.682;23.376;2023-02-28T06:22:36;95479.47;;;7.08;100.00
6030;BME280;3043;42.682;23.376;2023-02-28T06:25:03;95480.31;;;7.07;100.00
6030;BME280;3043;42.682;23.376;2023-02-28T06:27:30;95486.25;;;7.27;100.00
6030;BME280;3043;42.682;23.376;2023-02-28T06:29:55;95486.34;;;7.03;100.00
6030;BME280;3043;42.682;23.376;2023-02-28T06:32:22;95498.41;;;6.89;100.00
6030;BME280;3043;42.682;23.376;2023-02-28T06:34:47;95501.81;;;7.03;100.00
6030;BME280;3043;42.682;23.376;2023-02-28T06:37:12;95501.72;;;7.21;100.00
6030;BME280;3043;42.682;23.376;2023-02-28T06:39:38;95503.50;;;7.05;100.00
6030;BME280;3043;42.682;23.376;2023-02-28T06:42:04;95504.41;;;6.94;100.00
6030;BME280;3043;42.682;23.376;2023-02-28T06:44:29;95503.50;;;7.04;100.00
6030;BME280;3043;42.682;23.376;2023-02-28T06:47:01;95509.56;;;6.86;100.00
6030;BME280;3043;42.682;23.376;2023-02-28T06:49:31;95512.16;;;6.85;100.00
6030;BME280;3043;42.682;23.376;2023-02-28T06:51:57;95512.94;;;6.96;100.00
6030;BME280;3043;42.682;23.376;2023-02-28T06:54:22;95515.50;;;7.08;100.00
6030;BME280;3043;42.682;23.376;2023-02-28T06:56:48;95511.19;;;7.11;100.00
6030;BME280;3043;42.682;23.376;2023-02-28T06:59:14;95505.16;;;7.26;100.00
6030;BME280;3043;42.682;23.376;2023-02-28T07:01:39;95521.47;;;7.20;100.00
6030;BME280;3043;42.682;23.376;2023-02-28T07:04:06;95518.88;;;7.20;100.00
6030;BME280;3043;42.682;23.376;2023-02-28T07:06:31;95520.56;;;7.35;100.00
6030;BME280;3043;42.682;23.376;2023-02-28T07:08:57;95511.13;;;7.32;100.00
6030;BME280;3043;42.682;23.376;2023-02-28T07:11:25;95520.56;;;7.38;100.00
6030;BME280;3043;42.682;23.376;2023-02-28T07:13:52;95506.75;;;7.48;100.00
6030;BME280;3043;42.682;23.376;2023-02-28T07:16:18;95508.44;;;7.55;100.00
6030;BME280;3043;42.682;23.376;2023-02-28T07:18:43;95508.47;;;7.49;100.00
6030;BME280;3043;42.682;23.376;2023-02-28T07:21:10;95508.38;;;7.67;100.00
6030;BME280;3043;42.682;23.376;2023-02-28T07:23:36;95516.06;;;7.81;100.00
6030;BME280;3043;42.682;23.376;2023-02-28T07:26:04;95515.16;;;7.86;100.00
6030;BME280;3043;42.682;23.376;2023-02-28T07:28:29;95513.50;;;7.75;100.00
6030;BME280;3043;42.682;23.376;2023-02-28T07:30:55;95510.88;;;7.84;100.00
6030;BME280;3043;42.682;23.376;2023-02-28T07:33:20;95526.28;;;7.93;100.00
6030;BME280;3043;42.682;23.376;2023-02-28T07:35:46;95506.44;;;8.02;100.00
6030;BME280;3043;42.682;23.376;2023-02-28T07:38:11;95512.41;;;8.12;100.00
6030;BME280;3043;42.682;23.376;2023-02-28T07:40:39;95507.09;;;8.33;100.00
6030;BME280;3043;42.682;23.376;2023-02-28T07:43:04;95509.59;;;8.43;100.00
6030;BME280;3043;42.682;23.376;2023-02-28T07:45:30;95512.19;;;8.42;100.00
6030;BME280;3043;42.682;23.376;2023-02-28T07:48:00;95519.69;;;8.73;100.00
6030;BME280;3043;42.682;23.376;2023-02-28T07:50:25;95511.13;;;8.67;100.00
6030;BME280;3043;42.682;23.376;2023-02-28T07:52:52;95513.66;;;8.73;100.00
6030;BME280;3043;42.682;23.376;2023-02-28T07:55:19;95505.88;;;8.77;100.00
6030;BME280;3043;42.682;23.376;2023-02-28T07:57:44;95510.06;;;8.86;100.00
6030;BME280;3043;42.682;23.376;2023-02-28T08:00:10;95502.19;;;8.99;100.00
6030;BME280;3043;42.682;23.376;2023-02-28T08:02:38;95505.72;;;8.92;100.00
6030;BME280;3043;42.682;23.376;2023-02-28T08:05:04;95503.81;;;9.10;100.00
6030;BME280;3043;42.682;23.376;2023-02-28T08:07:30;95504.47;;;9.30;100.00
6030;BME280;3043;42.682;23.376;2023-02-28T08:09:55;95512.03;;;9.45;100.00
6030;BME280;3043;42.682;23.376;2023-02-28T08:12:21;95511.78;;;9.63;100.00
6030;BME280;3043;42.682;23.376;2023-02-28T08:14:46;95512.47;;;9.77;100.00
6030;BME280;3043;42.682;23.376;2023-02-28T08:17:11;95515.88;;;9.79;100.00
6030;BME280;3043;42.682;23.376;2023-02-28T08:19:38;95512.88;;;10.09;100.00
6030;BME280;3043;42.682;23.376;2023-02-28T08:22:03;95508.00;;;10.45;100.00
6030;BME280;3043;42.682;23.376;2023-02-28T08:24:29;95508.28;;;10.80;100.00
6030;BME280;3043;42.682;23.376;2023-02-28T08:26:55;95513.00;;;11.06;100.00
6030;BME280;3043;42.682;23.376;2023-02-28T08:29:20;95515.53;;;11.53;100.00
6030;BME280;3043;42.682;23.376;2023-02-28T08:31:46;95524.94;;;11.60;100.00
6030;BME280;3043;42.682;23.376;2023-02-28T08:34:13;95517.84;;;12.09;100.00
6030;BME280;3043;42.682;23.376;2023-02-28T08:36:39;95516.13;;;12.82;100.00
6030;BME280;3043;42.682;23.376;2023-02-28T08:39:05;95520.59;;;13.12;100.00
6030;BME280;3043;42.682;23.376;2023-02-28T08:41:31;95534.03;;;13.27;100.00
6030;BME280;3043;42.682;23.376;2023-02-28T08:43:57;95536.03;;;13.50;100.00
6030;BME280;3043;42.682;23.376;2023-02-28T08:46:22;95528.91;;;13.56;100.00
6030;BME280;3043;42.682;23.376;2023-02-28T08:48:54;95534.88;;;13.60;100.00
6030;BME280;3043;42.682;23.376;2023-02-28T08:51:21;95534.22;;;13.82;100.00
6030;BME280;3043;42.682;23.376;2023-02-28T08:53:55;95535.13;;;13.51;100.00
6030;BME280;3043;42.682;23.376;2023-02-28T08:56:22;95545.59;;;13.16;100.00
6030;BME280;3043;42.682;23.376;2023-02-28T08:58:49;95535.66;;;12.96;100.00
6030;BME280;3043;42.682;23.376;2023-02-28T09:01:16;95535.50;;;12.69;100.00
6030;BME280;3043;42.682;23.376;2023-02-28T09:03:42;95538.16;;;12.29;100.00
6030;BME280;3043;42.682;23.376;2023-02-28T09:06:08;95534.38;;;12.05;100.00
6030;BME280;3043;42.682;23.376;2023-02-28T09:08:35;95543.06;;;11.60;100.00
6030;BME280;3043;42.682;23.376;2023-02-28T09:11:00;95529.53;;;11.46;100.00
6030;BME280;3043;42.682;23.376;2023-02-28T09:13:27;95526.03;;;11.47;100.00
6030;BME280;3043;42.682;23.376;2023-02-28T09:15:53;95519.16;;;11.46;100.00
6030;BME280;3043;42.682;23.376;2023-02-28T09:18:19;95525.63;;;11.68;100.00
6030;BME280;3043;42.682;23.376;2023-02-28T09:20:45;95525.16;;;11.92;100.00
6030;BME280;3043;42.682;23.376;2023-02-28T09:23:32;95524.75;;;12.10;100.00
6030;BME280;3043;42.682;23.376;2023-02-28T09:25:58;95526.06;;;11.90;100.00
6030;BME280;3043;42.682;23.376;2023-02-28T09:28:23;95526.50;;;11.69;100.00
6030;BME280;3043;42.682;23.376;2023-02-28T09:30:51;95519.16;;;11.89;100.00
6030;BME280;3043;42.682;23.376;2023-02-28T09:33:19;95524.97;;;12.01;100.00
6030;BME280;3043;42.682;23.376;2023-02-28T09:35:49;95516.47;;;11.93;100.00
6030;BME280;3043;42.682;23.376;2023-02-28T09:38:14;95519.34;;;11.81;100.00
6030;BME280;3043;42.682;23.376;2023-02-28T09:43:13;95529.34;;;11.98;100.00
6030;BME280;3043;42.682;23.376;2023-02-28T09:45:41;95525.25;;;12.26;100.00
6030;BME280;3043;42.682;23.376;2023-02-28T09:48:31;95512.28;;;12.96;100.00
6030;BME280;3043;42.682;23.376;2023-02-28T09:51:04;95523.53;;;13.32;100.00
6030;BME280;3043;42.682;23.376;2023-02-28T09:53:33;95526.19;;;13.61;100.00
6030;BME280;3043;42.682;23.376;2023-02-28T09:56:08;95527.63;;;13.71;100.00
6030;BME280;3043;42.682;23.376;2023-02-28T09:58:42;95522.69;;;13.62;100.00
6030;BME280;3043;42.682;23.376;2023-02-28T10:04:04;95529.84;;;13.54;100.00
6030;BME280;3043;42.682;23.376;2023-02-28T10:06:45;95529.13;;;13.78;100.00
6030;BME280;3043;42.682;23.376;2023-02-28T10:09:32;95540.16;;;13.87;100.00
6030;BME280;3043;42.682;23.376;2023-02-28T10:12:05;95524.41;;;14.21;100.00
6030;BME280;3043;42.682;23.376;2023-02-28T10:14:33;95524.16;;;14.58;100.00
6030;BME280;3043;42.682;23.376;2023-02-28T10:17:04;95529.50;;;15.07;100.00
6030;BME280;3043;42.682;23.376;2023-02-28T10:22:05;95528.72;;;15.29;100.00
6030;BME280;3043;42.682;23.376;2023-02-28T10:24:43;95558.91;;;15.36;100.00
6030;BME280;3043;42.682;23.376;2023-02-28T10:29:47;95513.69;;;15.36;100.00
6030;BME280;3043;42.682;23.376;2023-02-28T10:32:17;95510.06;;;15.41;100.00
6030;BME280;3043;42.682;23.376;2023-02-28T10:34:43;95503.00;;;15.19;100.00
6030;BME280;3043;42.682;23.376;2023-02-28T10:37:10;95512.41;;;14.98;100.00
6030;BME280;3043;42.682;23.376;2023-02-28T10:39:46;95501.88;;;15.01;100.00
6030;BME280;3043;42.682;23.376;2023-02-28T10:42:26;95505.03;;;15.11;100.00
6030;BME280;3043;42.682;23.376;2023-02-28T10:45:15;95497.75;;;14.68;100.00
6030;BME280;3043;42.682;23.376;2023-02-28T10:50:51;95508.81;;;14.76;100.00
6030;BME280;3043;42.682;23.376;2023-02-28T10:55:59;95504.97;;;14.60;100.00
6030;BME280;3043;42.682;23.376;2023-02-28T10:58:32;95498.13;;;14.30;100.00
6030;BME280;3043;42.682;23.376;2023-02-28T11:01:14;95470.84;;;14.42;100.00
6030;BME280;3043;42.682;23.376;2023-02-28T11:03:39;95480.53;;;14.90;100.00
6030;BME280;3043;42.682;23.376;2023-02-28T11:06:08;95472.09;;;15.08;100.00
6030;BME280;3043;42.682;23.376;2023-02-28T11:08:51;95483.34;;;14.58;100.00
6030;BME280;3043;42.682;23.376;2023-02-28T11:11:17;95470.47;;;14.26;100.00
6030;BME280;3043;42.682;23.376;2023-02-28T11:13:45;95467.06;;;14.24;100.00
6030;BME280;3043;42.682;23.376;2023-02-28T11:16:13;95459.47;;;14.16;100.00
6030;BME280;3043;42.682;23.376;2023-02-28T11:21:26;95469.22;;;13.52;100.00
6030;BME280;3043;42.682;23.376;2023-02-28T11:24:00;95465.72;;;13.53;100.00
6030;BME280;3043;42.682;23.376;2023-02-28T11:26:38;95457.63;;;13.33;100.00
6030;BME280;3043;42.682;23.376;2023-02-28T11:29:16;95442.63;;;13.42;100.00
6030;BME280;3043;42.682;23.376;2023-02-28T11:31:42;95455.91;;;13.62;100.00
6030;BME280;3043;42.682;23.376;2023-02-28T11:34:24;95450.47;;;13.41;100.00
6030;BME280;3043;42.682;23.376;2023-02-28T11:36:51;95444.56;;;13.34;100.00
6030;BME280;3043;42.682;23.376;2023-02-28T11:39:17;95447.59;;;13.50;100.00
6030;BME280;3043;42.682;23.376;2023-02-28T11:49:53;95447.88;;;13.09;100.00
6030;BME280;3043;42.682;23.376;2023-02-28T11:55:31;95437.59;;;13.06;100.00
6030;BME280;3043;42.682;23.376;2023-02-28T12:19:25;95434.00;;;13.10;100.00
6030;BME280;3043;42.682;23.376;2023-02-28T12:22:15;95429.34;;;12.89;100.00
6030;BME280;3043;42.682;23.376;2023-02-28T12:27:19;95425.72;;;12.96;100.00
6030;BME280;3043;42.682;23.376;2023-02-28T12:29:58;95429.03;;;13.01;100.00
6030;BME280;3043;42.682;23.376;2023-02-28T12:32:57;95419.81;;;12.89;100.00
6030;BME280;3043;42.682;23.376;2023-02-28T12:35:28;95417.34;;;12.85;100.00
6030;BME280;3043;42.682;23.376;2023-02-28T12:38:03;95428.72;;;13.13;100.00
6030;BME280;3043;42.682;23.376;2023-02-28T12:40:41;95421.41;;;13.27;100.00
6030;BME280;3043;42.682;23.376;2023-02-28T12:43:09;95423.16;;;13.25;100.00
6030;BME280;3043;42.682;23.376;2023-02-28T12:48:07;95423.50;;;13.13;100.00
6030;BME280;3043;42.682;23.376;2023-02-28T12:50:33;95415.75;;;13.11;100.00
6030;BME280;3043;42.682;23.376;2023-02-28T12:53:18;95421.69;;;13.16;100.00
6030;BME280;3043;42.682;23.376;2023-02-28T12:55:56;95408.75;;;13.15;100.00
6030;BME280;3043;42.682;23.376;2023-02-28T12:58:38;95420.16;;;13.09;100.00
6030;BME280;3043;42.682;23.376;2023-02-28T13:09:55;95400.25;;;13.08;100.00
6030;BME280;3043;42.682;23.376;2023-02-28T13:12:21;95412.69;;;13.28;100.00
6030;BME280;3043;42.682;23.376;2023-02-28T13:14:48;95409.22;;;13.29;100.00
6030;BME280;3043;42.682;23.376;2023-02-28T13:17:20;95409.47;;;13.20;100.00
6030;BME280;3043;42.682;23.376;2023-02-28T13:19:57;95407.50;;;13.28;100.00
6030;BME280;3043;42.682;23.376;2023-02-28T13:22:42;95410.81;;;13.33;100.00
6030;BME280;3043;42.682;23.376;2023-02-28T13:28:08;95395.56;;;13.21;100.00
6030;BME280;3043;42.682;23.376;2023-02-28T13:33:35;95398.78;;;12.98;100.00
6030;BME280;3043;42.682;23.376;2023-02-28T13:38:41;95399.38;;;13.09;100.00
6030;BME280;3043;42.682;23.376;2023-02-28T13:46:34;95393.50;;;13.03;100.00
6030;BME280;3043;42.682;23.376;2023-02-28T13:57:22;95385.09;;;12.59;100.00
6030;BME280;3043;42.682;23.376;2023-02-28T13:59:55;95388.84;;;12.49;100.00
6030;BME280;3043;42.682;23.376;2023-02-28T14:02:35;95389.09;;;12.39;100.00
6030;BME280;3043;42.682;23.376;2023-02-28T14:05:17;95399.75;;;12.28;100.00
6030;BME280;3043;42.682;23.376;2023-02-28T14:07:51;95387.88;;;12.18;100.00
6030;BME280;3043;42.682;23.376;2023-02-28T14:10:32;95401.84;;;12.14;100.00
6030;BME280;3043;42.682;23.376;2023-02-28T14:13:12;95395.03;;;12.10;100.00
6030;BME280;3043;42.682;23.376;2023-02-28T14:20:54;95383.34;;;11.91;100.00
6030;BME280;3043;42.682;23.376;2023-02-28T14:23:34;95392.56;;;12.04;100.00
6030;BME280;3043;42.682;23.376;2023-02-28T14:26:25;95385.00;;;11.95;100.00
6030;BME280;3043;42.682;23.376;2023-02-28T14:31:34;95400.56;;;11.95;100.00
6030;BME280;3043;42.682;23.376;2023-02-28T14:36:36;95392.47;;;11.72;100.00
6030;BME280;3043;42.682;23.376;2023-02-28T14:39:32;95399.84;;;11.49;100.00
6030;BME280;3043;42.682;23.376;2023-02-28T14:41:58;95397.66;;;11.72;100.00
6030;BME280;3043;42.682;23.376;2023-02-28T14:44:28;95387.50;;;11.62;100.00
6030;BME280;3043;42.682;23.376;2023-02-28T14:46:55;95390.94;;;11.62;100.00
6030;BME280;3043;42.682;23.376;2023-02-28T14:49:41;95390.88;;;11.65;100.00
6030;BME280;3043;42.682;23.376;2023-02-28T14:52:15;95387.59;;;11.57;100.00
6030;BME280;3043;42.682;23.376;2023-02-28T14:54:43;95394.44;;;11.60;100.00
6030;BME280;3043;42.682;23.376;2023-02-28T14:57:27;95393.53;;;11.62;100.00
6030;BME280;3043;42.682;23.376;2023-02-28T15:00:20;95395.44;;;11.54;100.00
6030;BME280;3043;42.682;23.376;2023-02-28T15:02:46;95397.97;;;11.57;100.00
6030;BME280;3043;42.682;23.376;2023-02-28T15:07:37;95388.06;;;11.36;100.00
6030;BME280;3043;42.682;23.376;2023-02-28T15:10:29;95388.06;;;11.36;100.00
6030;BME280;3043;42.682;23.376;2023-02-28T15:12:58;95389.81;;;11.34;100.00
6030;BME280;3043;42.682;23.376;2023-02-28T15:15:35;95384.81;;;11.25;100.00
6030;BME280;3043;42.682;23.376;2023-02-28T15:18:05;95378.72;;;11.28;100.00
6030;BME280;3043;42.682;23.376;2023-02-28T15:20:33;95384.75;;;11.28;100.00
6030;BME280;3043;42.682;23.376;2023-02-28T15:22:59;95375.69;;;11.08;100.00
6030;BME280;3043;42.682;23.376;2023-02-28T15:25:26;95397.38;;;11.02;100.00
6030;BME280;3043;42.682;23.376;2023-02-28T15:27:54;95389.13;;;10.83;100.00
6030;BME280;3043;42.682;23.376;2023-02-28T15:30:28;95399.00;;;10.63;100.00
6030;BME280;3043;42.682;23.376;2023-02-28T15:35:48;95400.03;;;10.55;100.00
6030;BME280;3043;42.682;23.376;2023-02-28T15:40:52;95401.84;;;10.50;100.00
6030;BME280;3043;42.682;23.376;2023-02-28T15:43:31;95401.94;;;10.44;100.00